Hundvaag 1 weather for Sep 1988
Month no. 15
Obs.
Da.
Temp. Dew Point Precip. Wind
Speed
Wind gusts Cloud cover Press. Humidity Wind dir. Sunny OPT
01.09.1988 13,4   9,0             1  
02.09.1988 16,0   0,0             1  
03.09.1988 12,3   18,0             1  
04.09.1988 12,7   2,3             1  
05.09.1988 11,1   5,8                
06.09.1988 10,6   12,1             1  
07.09.1988 8,9   1,0             1  
08.09.1988 14,1   0,0             1  
09.09.1988 13,4   3,7                
10.09.1988 15,0   1,3                
11.09.1988 11,8   5,0             1  
12.09.1988 10,4   16,3             1  
13.09.1988 11,4   0,0             1  
14.09.1988 7,5   0,0             1  
15.09.1988 11,7   0,0             1  
16.09.1988 11,2   1,8             1  
17.09.1988 12,1   2,1                
18.09.1988 12,1   3,0             1  
19.09.1988 12,2   17,2                
20.09.1988 12,2   4,8                
21.09.1988 12,2   6,1                
22.09.1988 11,9   1,9                
23.09.1988 11,6   17,8                
24.09.1988 9,3   27,2             1  
25.09.1988 9,7   9,4             1  
26.09.1988 12,1   8,4             1  
27.09.1988 7,6   6,9                
28.09.1988 10,7   13,9             1  
29.09.1988 9,3   8,1                
30.09.1988 8,9   14,2             1  
                       
Avrg/Sum 11,4   217,3             19